createdAt,value
2022-08-22T00:01:04.169Z,4.75
2022-08-22T00:03:39.295Z,4.60
2022-08-22T00:06:21.020Z,5.32
2022-08-22T00:09:04.031Z,7.43
2022-08-22T00:11:42.138Z,5.37
2022-08-22T00:14:18.274Z,6.47
2022-08-22T00:17:24.101Z,6.00
2022-08-22T00:19:54.415Z,5.82
2022-08-22T00:22:48.253Z,6.55
2022-08-22T00:25:25.446Z,6.63
2022-08-22T00:28:00.392Z,6.57
2022-08-22T00:30:27.876Z,5.07
2022-08-22T00:33:09.336Z,6.40
2022-08-22T00:35:46.295Z,6.03
2022-08-22T00:38:33.348Z,8.65
2022-08-22T00:41:12.713Z,5.35
2022-08-22T00:44:23.080Z,6.18
2022-08-22T00:47:16.295Z,5.70
2022-08-22T00:50:14.463Z,6.82
2022-08-22T00:53:04.214Z,6.20
2022-08-22T00:55:40.775Z,7.03
2022-08-22T00:58:20.998Z,6.00
2022-08-22T01:00:54.354Z,7.38
2022-08-22T01:03:34.654Z,5.63
2022-08-22T01:06:48.328Z,6.32
2022-08-22T01:09:31.540Z,5.03
2022-08-22T01:12:40.624Z,6.07
2022-08-22T01:15:10.208Z,5.65
2022-08-22T01:17:48.661Z,5.90
2022-08-22T01:20:49.518Z,6.60
2022-08-22T01:23:37.866Z,4.90
2022-08-22T01:26:32.913Z,5.95
2022-08-22T01:29:31.818Z,7.60
2022-08-22T01:32:11.138Z,6.80
2022-08-22T01:34:47.510Z,6.40
2022-08-22T01:37:14.743Z,6.60
2022-08-22T01:40:00.217Z,6.28
2022-08-22T01:43:05.971Z,6.63
2022-08-22T01:45:58.694Z,6.43
2022-08-22T01:48:47.764Z,6.07
2022-08-22T01:51:28.652Z,6.40
2022-08-22T01:54:08.154Z,6.60
2022-08-22T01:56:39.401Z,6.85
2022-08-22T02:02:14.133Z,6.60
2022-08-22T02:05:09.703Z,5.80
2022-08-22T02:07:46.230Z,6.53
2022-08-22T02:10:13.910Z,6.68
2022-08-22T02:12:41.787Z,8.32
2022-08-22T02:15:22.882Z,6.57
2022-08-22T02:18:13.151Z,6.93
2022-08-22T02:21:14.367Z,5.55
2022-08-22T02:23:44.755Z,7.88
2022-08-22T02:26:17.794Z,7.45
2022-08-22T02:28:57.184Z,7.18
2022-08-22T02:31:53.080Z,5.63
2022-08-22T02:34:31.638Z,8.00
2022-08-22T02:37:30.073Z,8.05
2022-08-22T02:40:17.691Z,5.70
2022-08-22T02:43:10.029Z,6.50
2022-08-22T02:45:48.069Z,6.53
2022-08-22T02:48:45.490Z,6.13
2022-08-22T02:51:32.903Z,7.32
2022-08-22T02:54:30.817Z,5.30
2022-08-22T02:57:14.252Z,6.28
2022-08-22T03:00:30.878Z,6.57
2022-08-22T03:03:04.190Z,6.82
2022-08-22T03:05:37.247Z,6.15
2022-08-22T03:08:24.877Z,6.85
2022-08-22T03:11:04.971Z,6.57
2022-08-22T03:14:04.917Z,5.78
2022-08-22T03:16:40.371Z,7.10
2022-08-22T03:19:07.561Z,6.72
2022-08-22T03:21:43.490Z,6.68
2022-08-22T03:24:38.817Z,6.28
2022-08-22T03:27:32.269Z,7.05
2022-08-22T03:30:12.693Z,7.07
2022-08-22T03:32:56.254Z,7.20
2022-08-22T03:35:26.533Z,6.40
2022-08-22T03:37:57.038Z,7.03
2022-08-22T03:40:31.711Z,6.15
2022-08-22T03:43:21.464Z,6.82
2022-08-22T03:46:07.884Z,5.75
2022-08-22T03:48:41.346Z,5.05
2022-08-22T03:51:20.867Z,5.25
2022-08-22T03:54:06.547Z,7.93
2022-08-22T03:56:58.934Z,6.55
2022-08-22T03:59:36.845Z,7.25
2022-08-22T04:02:43.561Z,7.07
2022-08-22T04:05:34.805Z,6.47
2022-08-22T04:08:26.957Z,5.13
2022-08-22T04:11:18.175Z,5.53
2022-08-22T04:13:57.756Z,6.82
2022-08-22T04:16:49.125Z,5.15
2022-08-22T04:19:28.702Z,7.80
2022-08-22T04:22:08.570Z,6.60
2022-08-22T04:24:54.216Z,5.40
2022-08-22T04:27:21.523Z,5.60
2022-08-22T04:30:01.956Z,6.05
2022-08-22T04:32:37.310Z,6.00
2022-08-22T04:35:27.862Z,7.90
2022-08-22T04:38:21.855Z,6.78
2022-08-22T04:40:52.762Z,6.90
2022-08-22T04:43:26.091Z,5.57
2022-08-22T04:46:11.381Z,5.63
2022-08-22T04:48:48.249Z,5.18
2022-08-22T04:51:32.230Z,5.47
2022-08-22T04:54:11.717Z,7.07
2022-08-22T04:56:57.663Z,5.55
2022-08-22T04:59:25.066Z,5.32
2022-08-22T05:01:56.660Z,6.90
2022-08-22T05:04:37.492Z,6.10
2022-08-22T05:07:26.554Z,6.90
2022-08-22T05:09:56.524Z,6.03
2022-08-22T05:12:31.098Z,5.57
2022-08-22T05:15:02.966Z,5.95
2022-08-22T05:17:30.458Z,5.55
2022-08-22T05:20:00.420Z,4.63
2022-08-22T05:22:29.176Z,5.88
2022-08-22T05:25:02.152Z,6.80
2022-08-22T05:27:32.256Z,6.10
2022-08-22T05:30:08.132Z,6.32
2022-08-22T05:33:04.082Z,4.25
2022-08-22T05:35:38.189Z,5.00
2022-08-22T05:38:07.450Z,6.15
2022-08-22T05:40:35.193Z,6.40
2022-08-22T05:43:05.188Z,5.00
2022-08-22T05:45:32.445Z,5.88
2022-08-22T05:48:08.938Z,5.03
2022-08-22T05:50:52.769Z,5.57
2022-08-22T05:53:41.500Z,6.25
2022-08-22T05:56:26.383Z,4.30
2022-08-22T05:58:56.234Z,5.18
2022-08-22T06:01:35.524Z,4.32
2022-08-22T06:04:13.924Z,5.38
2022-08-22T06:06:51.238Z,4.20
2022-08-22T06:09:36.994Z,3.80
2022-08-22T06:12:21.739Z,4.20
2022-08-22T06:14:58.396Z,3.92
2022-08-22T06:17:36.227Z,4.18
2022-08-22T06:20:06.460Z,5.32
2022-08-22T06:22:38.487Z,4.53
2022-08-22T06:25:14.853Z,4.05
2022-08-22T06:27:43.226Z,3.35
2022-08-22T06:30:12.945Z,3.88
2022-08-22T06:32:59.753Z,3.70
2022-08-22T06:35:50.638Z,4.05
2022-08-22T06:38:19.589Z,4.38
2022-08-22T06:40:47.235Z,3.20
2022-08-22T06:43:15.195Z,4.10
2022-08-22T06:45:42.495Z,3.90
2022-08-22T06:48:09.783Z,4.63
2022-08-22T06:50:41.888Z,3.63
2022-08-22T06:53:34.475Z,4.53
2022-08-22T06:56:11.333Z,3.75
2022-08-22T06:58:43.634Z,3.75
2022-08-22T07:01:16.873Z,3.53
2022-08-22T07:03:50.919Z,3.35
2022-08-22T07:06:27.191Z,3.85
2022-08-22T07:08:55.408Z,2.90
2022-08-22T07:11:28.057Z,4.03
2022-08-22T07:14:00.517Z,3.25
2022-08-22T07:16:32.253Z,3.70
2022-08-22T07:18:59.668Z,3.17
2022-08-22T07:21:36.210Z,3.00
2022-08-22T07:24:04.252Z,3.03
2022-08-22T07:27:13.423Z,2.78
2022-08-22T07:29:48.776Z,3.58
2022-08-22T07:32:18.136Z,3.63
2022-08-22T07:34:59.462Z,3.50
2022-08-22T07:40:30.199Z,3.15
2022-08-22T07:43:23.523Z,2.90
2022-08-22T07:46:11.034Z,2.80
2022-08-22T07:49:08.304Z,3.65
2022-08-22T07:51:41.086Z,3.35
2022-08-22T07:54:10.296Z,4.15
2022-08-22T07:56:46.518Z,3.80
2022-08-22T07:59:16.380Z,3.35
2022-08-22T08:01:48.744Z,3.65
2022-08-22T08:04:19.163Z,4.05
2022-08-22T08:06:52.716Z,3.73
2022-08-22T08:09:20.206Z,3.00
2022-08-22T08:11:48.154Z,2.85
2022-08-22T08:14:15.552Z,2.95
2022-08-22T08:16:55.500Z,3.65
2022-08-22T08:19:22.907Z,3.88
2022-08-22T08:21:53.560Z,3.28
2022-08-22T08:24:24.354Z,2.58
2022-08-22T08:27:14.641Z,3.00
2022-08-22T08:29:43.858Z,3.60
2022-08-22T08:32:11.418Z,3.20
2022-08-22T08:34:39.398Z,2.60
2022-08-22T08:37:27.908Z,3.72
2022-08-22T08:39:57.360Z,2.97
2022-08-22T08:43:01.935Z,3.03
2022-08-22T08:46:00.872Z,2.83
2022-08-22T08:48:32.438Z,2.90
2022-08-22T08:53:59.780Z,3.08
2022-08-22T08:56:47.516Z,2.90
2022-08-22T08:59:25.630Z,2.47
2022-08-22T09:02:08.925Z,3.63
2022-08-22T09:04:40.993Z,3.58
2022-08-22T09:07:32.943Z,3.08
2022-08-22T09:10:08.514Z,2.80
2022-08-22T09:13:12.186Z,2.28
2022-08-22T09:15:58.604Z,2.85
2022-08-22T09:18:55.130Z,3.00
2022-08-22T09:21:59.951Z,3.47
2022-08-22T09:24:33.141Z,2.58
2022-08-22T09:27:02.198Z,3.38
2022-08-22T09:29:57.005Z,3.28
2022-08-22T09:32:45.311Z,1.90
2022-08-22T09:35:34.450Z,4.13
2022-08-22T09:38:19.871Z,3.13
2022-08-22T09:41:00.322Z,2.83
2022-08-22T09:43:48.536Z,2.70
2022-08-22T09:46:32.150Z,2.58
2022-08-22T09:49:14.308Z,3.15
2022-08-22T09:52:15.595Z,2.33
2022-08-22T09:55:16.129Z,2.25
2022-08-22T09:57:48.641Z,2.90
2022-08-22T10:00:25.886Z,2.42
2022-08-22T10:03:15.851Z,2.45
2022-08-22T10:05:52.409Z,2.15
2022-08-22T10:08:37.634Z,2.00
2022-08-22T10:11:42.340Z,2.33
2022-08-22T10:14:28.124Z,2.35
2022-08-22T10:17:16.636Z,2.60
2022-08-22T10:20:25.077Z,2.97
2022-08-22T10:23:29.744Z,3.35
2022-08-22T10:26:08.100Z,3.03
2022-08-22T10:28:37.866Z,3.65
2022-08-22T10:31:22.363Z,3.47
2022-08-22T10:34:01.592Z,3.58
2022-08-22T10:36:45.222Z,4.22
2022-08-22T10:39:19.319Z,3.10
2022-08-22T10:41:59.449Z,3.20
2022-08-22T10:44:41.270Z,2.80
2022-08-22T10:47:13.761Z,3.25
2022-08-22T10:49:54.071Z,3.47
2022-08-22T10:53:13.179Z,3.10
2022-08-22T10:55:40.969Z,2.70
2022-08-22T10:58:13.371Z,2.80
2022-08-22T11:00:49.755Z,2.80
2022-08-22T11:03:48.703Z,3.42
2022-08-22T11:06:21.674Z,2.80
2022-08-22T11:09:13.600Z,2.90
2022-08-22T11:12:18.365Z,2.90
2022-08-22T11:15:08.874Z,2.42
2022-08-22T11:17:59.935Z,3.15
2022-08-22T11:20:47.917Z,3.35
2022-08-22T11:23:50.539Z,3.08
2022-08-22T11:26:47.122Z,3.42
2022-08-22T11:29:23.271Z,2.70
2022-08-22T11:32:06.072Z,2.63
2022-08-22T11:34:50.442Z,3.60
2022-08-22T11:37:42.666Z,2.45
2022-08-22T11:40:24.911Z,3.13
2022-08-22T11:43:18.427Z,3.13
2022-08-22T11:45:48.223Z,2.75
2022-08-22T11:51:45.382Z,2.30
2022-08-22T11:54:17.493Z,2.63
2022-08-22T11:56:50.102Z,2.67
2022-08-22T11:59:48.036Z,2.13
2022-08-22T12:02:39.921Z,2.13
2022-08-22T12:05:20.219Z,2.70
2022-08-22T12:08:12.912Z,2.60
2022-08-22T12:10:49.446Z,2.25
2022-08-22T12:13:34.730Z,2.75
2022-08-22T12:16:08.624Z,2.33
2022-08-22T12:19:08.327Z,2.88
2022-08-22T12:21:50.815Z,2.72
2022-08-22T12:24:32.604Z,3.13
2022-08-22T12:27:41.970Z,2.63
2022-08-22T12:30:38.016Z,2.70
2022-08-22T12:33:28.044Z,2.90
2022-08-22T12:36:34.852Z,2.10
2022-08-22T12:39:08.179Z,2.05
2022-08-22T12:42:04.120Z,2.42
2022-08-22T12:45:10.508Z,1.77
2022-08-22T12:47:49.127Z,2.30
2022-08-22T12:50:34.650Z,2.25
2022-08-22T12:53:20.305Z,1.80
2022-08-22T12:56:13.583Z,1.98
2022-08-22T12:58:46.789Z,1.77
2022-08-22T13:01:18.619Z,2.33
2022-08-22T13:03:49.373Z,1.65
2022-08-22T13:06:35.060Z,2.00
2022-08-22T13:09:09.845Z,1.45
2022-08-22T13:11:39.509Z,2.33
2022-08-22T13:14:08.114Z,2.30
2022-08-22T13:16:51.001Z,1.55
2022-08-22T13:19:22.328Z,1.23
2022-08-22T13:22:10.102Z,2.47
2022-08-22T13:24:58.365Z,1.83
2022-08-22T13:28:03.403Z,2.00
2022-08-22T13:30:37.597Z,1.67
2022-08-22T13:33:16.387Z,1.77
2022-08-22T13:35:51.971Z,1.95
2022-08-22T13:38:28.102Z,2.15
2022-08-22T13:40:59.080Z,1.83
2022-08-22T13:43:34.486Z,1.35
2022-08-22T13:46:06.739Z,1.80
2022-08-22T13:48:49.578Z,2.40
2022-08-22T13:51:31.336Z,1.88
2022-08-22T13:54:40.173Z,1.88
2022-08-22T13:57:27.463Z,1.55
2022-08-22T14:00:28.625Z,3.35
2022-08-22T14:03:19.990Z,4.18
2022-08-22T14:05:53.140Z,1.52
2022-08-22T14:08:40.486Z,1.77
2022-08-22T14:11:25.852Z,2.85
2022-08-22T14:14:03.917Z,1.77
2022-08-22T14:16:39.103Z,1.67
2022-08-22T14:19:11.445Z,1.90
2022-08-22T14:21:51.886Z,1.50
2022-08-22T14:24:26.922Z,1.60
2022-08-22T14:26:57.820Z,2.20
2022-08-22T14:32:08.786Z,1.90
2022-08-22T14:34:37.557Z,1.77
2022-08-22T14:37:13.139Z,2.10
2022-08-22T14:39:42.775Z,2.08
2022-08-22T14:42:27.726Z,1.77
2022-08-22T14:45:10.142Z,1.98
2022-08-22T14:47:55.543Z,1.50
2022-08-22T14:50:54.848Z,1.45
2022-08-22T14:53:28.980Z,1.63
2022-08-22T14:56:05.684Z,1.55
2022-08-22T14:58:35.326Z,1.67
2022-08-22T15:01:11.209Z,1.70
2022-08-22T15:03:39.281Z,1.45
2022-08-22T15:06:07.315Z,1.92
2022-08-22T15:08:46.237Z,1.63
2022-08-22T15:11:22.669Z,1.30
2022-08-22T15:13:56.185Z,1.38
2022-08-22T15:16:43.406Z,1.45
2022-08-22T15:19:32.979Z,1.95
2022-08-22T15:22:11.235Z,2.08
2022-08-22T15:25:01.877Z,3.22
2022-08-22T15:27:30.390Z,3.90
2022-08-22T15:30:07.009Z,1.65
2022-08-22T15:32:46.389Z,2.65
2022-08-22T15:35:27.338Z,3.00
2022-08-22T15:38:04.915Z,1.65
2022-08-22T15:40:45.738Z,2.33
2022-08-22T15:43:42.457Z,1.83
2022-08-22T15:46:21.838Z,1.95
2022-08-22T15:48:56.160Z,2.17
2022-08-22T15:51:34.188Z,1.85
2022-08-22T15:54:25.316Z,1.45
2022-08-22T15:56:56.026Z,1.60
2022-08-22T15:59:29.799Z,2.33
2022-08-22T16:02:21.271Z,2.22
2022-08-22T16:05:11.523Z,1.65
2022-08-22T16:07:43.081Z,1.63
2022-08-22T16:10:22.651Z,1.55
2022-08-22T16:13:17.343Z,1.83
2022-08-22T16:15:55.963Z,1.70
2022-08-22T16:18:45.308Z,1.92
2022-08-22T16:21:13.338Z,1.80
2022-08-22T16:23:46.634Z,1.90
2022-08-22T16:26:24.263Z,1.90
2022-08-22T16:28:59.444Z,3.03
2022-08-22T16:31:46.006Z,2.33
2022-08-22T16:34:16.515Z,2.20
2022-08-22T16:37:08.545Z,2.33
2022-08-22T16:39:42.102Z,2.15
2022-08-22T16:42:15.756Z,2.28
2022-08-22T16:45:12.115Z,1.83
2022-08-22T16:47:41.469Z,2.55
2022-08-22T16:50:23.841Z,2.22
2022-08-22T16:53:04.821Z,2.13
2022-08-22T16:55:35.872Z,2.92
2022-08-22T16:58:15.287Z,2.00
2022-08-22T17:01:05.094Z,2.00
2022-08-22T17:03:32.368Z,2.20
2022-08-22T17:06:26.600Z,2.17
2022-08-22T17:09:18.217Z,2.40
2022-08-22T17:14:33.821Z,2.92
2022-08-22T17:17:19.881Z,2.15
2022-08-22T17:20:02.784Z,2.30
2022-08-22T17:22:59.935Z,1.98
2022-08-22T17:25:44.862Z,1.95
2022-08-22T17:28:17.076Z,2.10
2022-08-22T17:31:02.578Z,2.90
2022-08-22T17:34:05.593Z,2.30
2022-08-22T17:36:57.320Z,1.85
2022-08-22T17:39:29.081Z,2.00
2022-08-22T17:42:19.022Z,2.67
2022-08-22T17:45:28.186Z,2.17
2022-08-22T17:47:58.382Z,2.33
2022-08-22T17:50:32.824Z,2.20
2022-08-22T17:53:24.803Z,2.13
2022-08-22T17:56:18.162Z,1.80
2022-08-22T17:58:50.892Z,2.40
2022-08-22T18:01:37.369Z,3.08
2022-08-22T18:04:06.022Z,2.10
2022-08-22T18:06:35.537Z,2.30
2022-08-22T18:09:16.569Z,2.20
2022-08-22T18:11:52.468Z,2.47
2022-08-22T18:14:34.013Z,2.13
2022-08-22T18:17:01.785Z,2.58
2022-08-22T18:19:55.883Z,2.30
2022-08-22T18:22:30.273Z,3.05
2022-08-22T18:25:07.700Z,2.33
2022-08-22T18:27:45.924Z,1.92
2022-08-22T18:30:23.414Z,2.60
2022-08-22T18:33:06.246Z,2.38
2022-08-22T18:35:45.017Z,2.90
2022-08-22T18:38:20.197Z,2.40
2022-08-22T18:41:14.740Z,2.50
2022-08-22T18:43:45.047Z,2.60
2022-08-22T18:46:37.906Z,2.33
2022-08-22T18:49:20.894Z,3.13
2022-08-22T18:52:09.330Z,3.65
2022-08-22T18:54:58.225Z,2.60
2022-08-22T18:57:26.557Z,2.88
2022-08-22T19:00:10.146Z,3.00
2022-08-22T19:02:55.300Z,2.85
2022-08-22T19:05:25.995Z,3.13
2022-08-22T19:08:30.698Z,2.42
2022-08-22T19:11:19.698Z,3.20
2022-08-22T19:13:55.222Z,3.30
2022-08-22T19:16:25.624Z,3.40
2022-08-22T19:18:53.553Z,2.47
2022-08-22T19:21:43.422Z,3.42
2022-08-22T19:24:19.740Z,2.92
2022-08-22T19:26:51.203Z,2.78
2022-08-22T19:29:18.607Z,2.20
2022-08-22T19:31:56.373Z,2.60
2022-08-22T19:34:30.914Z,3.08
2022-08-22T19:37:32.134Z,2.58
2022-08-22T19:40:41.867Z,2.95
2022-08-22T19:43:27.742Z,3.03
2022-08-22T19:45:55.872Z,3.17
2022-08-22T19:48:28.242Z,3.50
2022-08-22T19:51:11.415Z,3.00
2022-08-22T19:54:01.935Z,2.88
2022-08-22T19:56:55.145Z,2.78
2022-08-22T19:59:35.545Z,2.80
2022-08-22T20:02:31.982Z,3.80
2022-08-22T20:05:22.222Z,2.90
2022-08-22T20:07:53.435Z,3.38
2022-08-22T20:13:19.706Z,3.95
2022-08-22T20:16:32.121Z,3.85
2022-08-22T20:19:09.557Z,3.72
2022-08-22T20:21:52.456Z,4.35
2022-08-22T20:24:22.002Z,4.25
2022-08-22T20:27:12.216Z,4.43
2022-08-22T20:29:39.855Z,4.00
2022-08-22T20:32:07.194Z,4.57
2022-08-22T20:34:37.870Z,4.40
2022-08-22T20:37:29.300Z,4.70
2022-08-22T20:40:53.522Z,4.30
2022-08-22T20:43:17.544Z,4.82
2022-08-22T20:46:01.261Z,4.57
2022-08-22T20:48:48.686Z,4.35
2022-08-22T20:51:19.355Z,4.95
2022-08-22T20:54:00.637Z,4.47
2022-08-22T20:59:36.045Z,5.10
2022-08-22T21:02:05.123Z,4.95
2022-08-22T21:04:42.782Z,5.05
2022-08-22T21:07:10.556Z,4.72
2022-08-22T21:09:56.402Z,5.03
2022-08-22T21:12:24.205Z,4.70
2022-08-22T21:14:52.334Z,5.20
2022-08-22T21:17:34.336Z,4.75
2022-08-22T21:20:21.311Z,6.30
2022-08-22T21:22:48.716Z,5.03
2022-08-22T21:25:16.004Z,5.55
2022-08-22T21:27:46.421Z,4.63
2022-08-22T21:30:21.958Z,6.07
2022-08-22T21:32:55.024Z,5.75
2022-08-22T21:35:32.665Z,4.63
2022-08-22T21:38:00.599Z,5.28
2022-08-22T21:40:33.996Z,4.95
2022-08-22T21:43:12.281Z,5.07
2022-08-22T21:45:39.537Z,5.68
2022-08-22T21:48:36.705Z,5.40
2022-08-22T21:51:22.701Z,5.07
2022-08-22T21:53:58.211Z,5.75
2022-08-22T21:56:37.837Z,4.57
2022-08-22T21:59:52.284Z,4.95
2022-08-22T22:02:31.487Z,5.28
2022-08-22T22:05:11.437Z,6.28
2022-08-22T22:07:44.147Z,5.05
2022-08-22T22:10:13.066Z,4.82
2022-08-22T22:12:41.806Z,5.15
2022-08-22T22:15:11.374Z,5.90
2022-08-22T22:17:38.797Z,5.28
2022-08-22T22:20:06.939Z,5.10
2022-08-22T22:22:34.618Z,4.70
2022-08-22T22:25:05.779Z,5.75
2022-08-22T22:27:53.255Z,5.32
2022-08-22T22:30:20.851Z,6.60
2022-08-22T22:32:49.357Z,5.25
2022-08-22T22:35:19.801Z,6.18
2022-08-22T22:37:47.165Z,5.50
2022-08-22T22:40:14.732Z,5.05
2022-08-22T22:42:42.839Z,6.45
2022-08-22T22:45:10.871Z,6.78
2022-08-22T22:47:38.507Z,5.32
2022-08-22T22:50:06.365Z,6.55
2022-08-22T22:52:34.583Z,5.18
2022-08-22T22:55:09.227Z,6.45
2022-08-22T22:57:41.306Z,5.53
2022-08-22T23:00:11.352Z,6.57
2022-08-22T23:02:42.400Z,5.78
2022-08-22T23:05:10.207Z,6.32
2022-08-22T23:07:37.680Z,6.43
2022-08-22T23:10:07.326Z,6.38
2022-08-22T23:12:36.225Z,5.80
2022-08-22T23:15:06.019Z,5.20
2022-08-22T23:17:33.943Z,6.85
2022-08-22T23:20:01.410Z,6.75
2022-08-22T23:22:30.226Z,8.07
2022-08-22T23:24:57.456Z,6.35
2022-08-22T23:27:25.068Z,6.70
2022-08-22T23:29:52.657Z,6.28
2022-08-22T23:32:20.048Z,7.50
2022-08-22T23:34:48.756Z,5.80
2022-08-22T23:37:18.239Z,5.63
2022-08-22T23:39:45.620Z,7.50
2022-08-22T23:42:13.271Z,7.18
2022-08-22T23:44:41.273Z,6.25
2022-08-22T23:47:09.167Z,5.78
2022-08-22T23:49:37.094Z,5.88
2022-08-22T23:52:04.787Z,6.85
2022-08-22T23:54:32.106Z,7.22
2022-08-22T23:57:00.702Z,6.13
2022-08-22T23:59:33.517Z,6.30
